Impacts METAR Board
IDs:

KILE - Killeen/Skylark Fld, TX, US

Updated at: 1000 UTC 13 Aug 2022
Potential Impact None Slight Moderate High
Time 12/22Z 12/23Z 13/00Z 13/01Z 13/02Z 13/03Z 13/04Z 13/05Z 13/06Z 13/07Z 13/08Z 13/09Z 13/10Z
Temp96 97 96 94 91 87 85 83 81 81 79 78 77
Dewpt66 66 64 66 67 69 69 69 70 69 69 70 69
Altim29.95 29.94 29.93 29.94 29.97 29.99 30.01 30.02 30.02 30.02 30.02 30.01 30.02
VIS10 10 10 10 10 10 10 10 10 10 10 10 10
CIG-- -- -- -- -- -- -- -- -- 80 -- -- --
CoverCLRCLRCLRFEWSCTCLRCLRSCTCLRBKNCLRCLRCLR
FltCatVFRVFRVFRVFRVFRVFRVFRVFRVFRVFRVFRVFRVFR
WX--------------------------
WDir90606080110160160170140003030
WSpd13 8 12 10 9 9 8 5 3 0 0 3 3
WGst-- -- -- -- -- -- -- -- -- -- -- -- --
Raw hourly METARs
KILE 122156Z AUTO 09013KT 10SM CLR 36/19 A2995 RMK AO2 SLP130 T03560189
KILE 122256Z AUTO 06008KT 10SM CLR 36/19 A2994 RMK AO2 SLP125 T03610189
KILE 122356Z AUTO 06012KT 10SM CLR 36/18 A2993 RMK AO2 SLP123 T03560178 10372 20333 56009
KILE 130056Z AUTO 08010KT 10SM FEW075 34/19 A2994 RMK AO2 SLP126 T03440189
KILE 130156Z AUTO 11009KT 10SM SCT070 33/19 A2997 RMK AO2 SLP133 T03280194
KILE 130256Z AUTO 16009KT 10SM CLR 31/21 A2999 RMK AO2 SLP140 6//// T03060206 53017
KILE 130356Z AUTO 16008KT 10SM CLR 29/21 A3001 RMK AO2 SLP148 T02940206
KILE 130456Z AUTO 17005KT 10SM SCT100 28/21 A3002 RMK AO2 SLP150 T02830206
KILE 130556Z AUTO 14003KT 10SM CLR 27/21 A3002 RMK AO2 SLP151 6//// T02720211 10356 20272 403720233 51011
KILE 130656Z AUTO 00000KT 10SM BKN080 27/21 A3002 RMK AO2 SLP150 T02720206
KILE 130756Z AUTO 00000KT 10SM CLR 26/21 A3002 RMK AO2 SLP150 T02610206
KILE 130856Z AUTO 03003KT 10SM CLR 26/21 A3001 RMK AO2 SLP149 T02560211 57002
KILE 130956Z AUTO 03003KT 10SM CLR 25/21 A3002 RMK AO2 SLP151 T02500206